Time;durP1;ratioP1;P1;durP2;ratioP2;P2;SDS_P1;SDS_P2;PMS_P1;PMS_P2;Temp;Humidity;BMP_temperature;BMP_pressure;BME280_temperature;BME280_humidity;BME280_pressure;Samples;Min_cycle;Max_cycle;Signal;HPM_P1;HPM_P2
2020/12/12 00:04:29;;;;;;;13.23;10.30;;;;;;;;;;4706862;28;20083;-57
2020/12/12 00:06:59;;;;;;;13.77;11.32;;;;;;;;;;4204305;34;20454;-56
2020/12/12 00:09:24;;;;;;;13.10;10.45;;;;;;;;;;4201362;34;20182;-56
2020/12/12 00:11:50;;;;;;;13.55;10.95;;;;;;;;;;4192587;34;20160;-56
2020/12/12 00:14:16;;;;;;;13.50;10.85;;;;;;;;;;4192467;34;20117;-56
2020/12/12 00:16:42;;;;;;;12.82;10.82;;;;;;;;;;4192585;34;20133;-56
2020/12/12 00:19:09;;;;;;;13.40;10.57;;;;;;;;;;4192390;34;20222;-56
2020/12/12 00:21:35;;;;;;;12.40;10.45;;;;;;;;;;4179601;34;20521;-57
2020/12/12 00:24:01;;;;;;;11.95;10.20;;;;;;;;;;4192126;34;20201;-56
2020/12/12 00:26:27;;;;;;;13.10;10.50;;;;;;;;;;4192242;34;20122;-56
2020/12/12 00:28:53;;;;;;;17.37;10.85;;;;;;;;;;4192098;34;20546;-57
2020/12/12 00:31:19;;;;;;;13.27;10.07;;;;;;;;;;4192447;34;20117;-56
2020/12/12 00:33:45;;;;;;;13.23;10.70;;;;;;;;;;4192015;34;20572;-56
2020/12/12 00:36:11;;;;;;;15.13;10.85;;;;;;;;;;4192341;34;20145;-56
2020/12/12 00:38:37;;;;;;;12.32;10.38;;;;;;;;;;4191946;34;20218;-56
2020/12/12 00:41:04;;;;;;;11.85;10.40;;;;;;;;;;4192097;34;20382;-56
2020/12/12 00:43:30;;;;;;;11.60;9.80;;;;;;;;;;4192308;34;20117;-56
2020/12/12 00:45:56;;;;;;;12.13;10.23;;;;;;;;;;4192077;34;20546;-57
2020/12/12 00:48:22;;;;;;;11.02;9.73;;;;;;;;;;4192079;34;20122;-56
2020/12/12 00:50:48;;;;;;;12.95;9.48;;;;;;;;;;4191899;34;20221;-56
2020/12/12 00:53:15;;;;;;;10.57;8.63;;;;;;;;;;4192010;34;20102;-56
2020/12/12 00:55:40;;;;;;;10.77;9.07;;;;;;;;;;4191922;34;20567;-56
2020/12/12 00:58:06;;;;;;;9.20;8.13;;;;;;;;;;4191978;34;20189;-56
2020/12/12 01:00:35;;;;;;;10.45;8.35;;;;;;;;;;4191750;34;20214;-56
2020/12/12 01:03:02;;;;;;;11.35;8.68;;;;;;;;;;4191928;34;20114;-56
2020/12/12 01:05:34;;;;;;;9.88;8.88;;;;;;;;;;4199095;34;20214;-56
2020/12/12 01:08:00;;;;;;;42.88;10.60;;;;;;;;;;4205795;34;20121;-56
2020/12/12 01:10:26;;;;;;;9.95;8.00;;;;;;;;;;4205594;34;20090;-56
2020/12/12 01:12:52;;;;;;;9.48;8.52;;;;;;;;;;4205890;34;20121;-56
2020/12/12 01:15:18;;;;;;;11.15;9.60;;;;;;;;;;4205581;34;20134;-56
2020/12/12 01:17:44;;;;;;;9.75;8.73;;;;;;;;;;4205582;34;20129;-56
2020/12/12 01:20:10;;;;;;;10.77;8.82;;;;;;;;;;4205042;34;20160;-56
2020/12/12 01:22:36;;;;;;;10.23;8.60;;;;;;;;;;4205571;34;20133;-56
2020/12/12 01:25:03;;;;;;;9.55;8.55;;;;;;;;;;4205673;34;20513;-56
2020/12/12 01:27:29;;;;;;;11.27;10.18;;;;;;;;;;4205524;34;20118;-56
2020/12/12 01:29:55;;;;;;;10.10;9.05;;;;;;;;;;4205419;34;20168;-56
2020/12/12 01:32:21;;;;;;;11.85;10.00;;;;;;;;;;4205582;34;20121;-56
2020/12/12 01:34:47;;;;;;;10.65;9.55;;;;;;;;;;4205416;34;20129;-56
2020/12/12 01:37:12;;;;;;;10.55;9.52;;;;;;;;;;4205427;34;20102;-56
2020/12/12 01:39:38;;;;;;;11.75;9.95;;;;;;;;;;4197145;34;20122;-56
2020/12/12 01:42:04;;;;;;;11.00;9.85;;;;;;;;;;4191631;34;20097;-56
2020/12/12 01:44:30;;;;;;;10.18;9.00;;;;;;;;;;4191391;34;20120;-57
2020/12/12 01:46:57;;;;;;;11.12;7.97;;;;;;;;;;4191599;34;20126;-57
2020/12/12 01:49:23;;;;;;;11.18;9.98;;;;;;;;;;4191365;34;20121;-57
2020/12/12 01:51:49;;;;;;;11.23;9.88;;;;;;;;;;4191556;34;20098;-57
2020/12/12 01:54:15;;;;;;;12.05;10.75;;;;;;;;;;4178842;34;20126;-57
2020/12/12 01:56:41;;;;;;;12.85;10.48;;;;;;;;;;4191467;34;20216;-57
2020/12/12 01:59:07;;;;;;;12.73;10.65;;;;;;;;;;4167456;34;20122;-57
2020/12/12 02:01:38;;;;;;;12.05;10.75;;;;;;;;;;4191675;34;20532;-57
2020/12/12 02:04:04;;;;;;;12.98;11.02;;;;;;;;;;4178785;34;20169;-57
2020/12/12 02:06:30;;;;;;;13.25;10.95;;;;;;;;;;4200581;34;20423;-57
2020/12/12 02:08:56;;;;;;;13.02;10.90;;;;;;;;;;4192551;34;20461;-57
2020/12/12 02:11:22;;;;;;;12.45;10.57;;;;;;;;;;4192531;34;20093;-57
2020/12/12 02:13:48;;;;;;;11.55;10.30;;;;;;;;;;4205021;34;20152;-57
2020/12/12 02:16:17;;;;;;;13.23;11.82;;;;;;;;;;4205401;34;20477;-57
2020/12/12 02:18:44;;;;;;;13.45;11.27;;;;;;;;;;4204935;34;20513;-57
2020/12/12 02:21:09;;;;;;;13.15;11.35;;;;;;;;;;4205123;34;20097;-57
2020/12/12 02:23:35;;;;;;;12.05;10.32;;;;;;;;;;4205149;34;20281;-57
2020/12/12 02:26:02;;;;;;;13.15;10.70;;;;;;;;;;4205152;34;20105;-57
2020/12/12 02:28:44;;;;;;;11.90;10.15;;;;;;;;;;4205057;34;20173;-57
2020/12/12 02:31:10;;;;;;;12.65;11.18;;;;;;;;;;4205058;34;20190;-57
2020/12/12 02:33:38;;;;;;;15.48;11.90;;;;;;;;;;4204929;34;20117;-57
2020/12/12 02:36:06;;;;;;;15.27;11.45;;;;;;;;;;4192513;34;20114;-57
2020/12/12 02:38:32;;;;;;;13.40;11.20;;;;;;;;;;4205101;34;20197;-58
2020/12/12 02:40:57;;;;;;;13.27;11.00;;;;;;;;;;4205107;34;20187;-57
2020/12/12 02:43:23;;;;;;;12.60;11.10;;;;;;;;;;4204982;34;20128;-57
2020/12/12 02:45:49;;;;;;;15.57;11.90;;;;;;;;;;4204727;34;20094;-57
2020/12/12 02:48:15;;;;;;;15.35;11.80;;;;;;;;;;4204914;34;20521;-57
2020/12/12 02:50:41;;;;;;;14.40;11.75;;;;;;;;;;4204821;34;20155;-57
2020/12/12 02:53:07;;;;;;;12.75;11.12;;;;;;;;;;4204855;34;20209;-57
2020/12/12 02:55:33;;;;;;;16.52;11.73;;;;;;;;;;4204817;34;20102;-58
2020/12/12 02:57:59;;;;;;;17.00;12.45;;;;;;;;;;4204989;34;20517;-58
2020/12/12 03:00:25;;;;;;;15.30;12.13;;;;;;;;;;4204660;34;20132;-57
2020/12/12 03:02:51;;;;;;;14.35;12.45;;;;;;;;;;4204819;34;20128;-57
2020/12/12 03:05:17;;;;;;;16.35;12.55;;;;;;;;;;4204254;34;20129;-58
2020/12/12 03:07:44;;;;;;;15.70;12.35;;;;;;;;;;4204830;34;20445;-57
2020/12/12 03:10:10;;;;;;;13.85;11.73;;;;;;;;;;4204640;34;20129;-57
2020/12/12 03:12:36;;;;;;;16.20;12.15;;;;;;;;;;4204631;34;20212;-56
2020/12/12 03:15:09;;;;;;;15.55;12.18;;;;;;;;;;4204624;34;20222;-57
2020/12/12 03:17:35;;;;;;;16.42;13.38;;;;;;;;;;4204545;34;20208;-58
2020/12/12 03:20:01;;;;;;;16.75;13.05;;;;;;;;;;4204800;34;20100;-57
2020/12/12 03:22:27;;;;;;;16.52;12.80;;;;;;;;;;4204549;34;20141;-58
2020/12/12 03:24:53;;;;;;;16.20;12.05;;;;;;;;;;4204733;34;20629;-58
2020/12/12 03:27:18;;;;;;;15.48;12.88;;;;;;;;;;4204724;34;20121;-57
2020/12/12 03:29:44;;;;;;;17.33;13.20;;;;;;;;;;4204512;34;20135;-58
2020/12/12 03:32:11;;;;;;;16.55;12.95;;;;;;;;;;4204683;34;20138;-58
2020/12/12 03:34:37;;;;;;;18.10;13.13;;;;;;;;;;4204298;34;20202;-58
2020/12/12 03:37:07;;;;;;;18.92;13.18;;;;;;;;;;4204389;34;20610;-58
2020/12/12 03:39:32;;;;;;;16.77;12.18;;;;;;;;;;4204020;34;20098;-58
2020/12/12 03:41:58;;;;;;;20.30;14.43;;;;;;;;;;4204545;34;20293;-58
2020/12/12 03:44:24;;;;;;;16.25;12.93;;;;;;;;;;4206366;34;20123;-58
2020/12/12 03:46:50;;;;;;;21.27;14.02;;;;;;;;;;4206324;34;20541;-58
2020/12/12 03:49:16;;;;;;;17.08;12.43;;;;;;;;;;4206299;34;20220;-58
2020/12/12 03:51:42;;;;;;;15.20;12.27;;;;;;;;;;4206363;34;20469;-58
2020/12/12 03:54:08;;;;;;;17.77;12.95;;;;;;;;;;4206250;34;20209;-58
2020/12/12 03:56:34;;;;;;;16.65;13.23;;;;;;;;;;4206286;34;20431;-58
2020/12/12 03:59:00;;;;;;;17.98;14.07;;;;;;;;;;4206119;34;20105;-59
2020/12/12 04:01:25;;;;;;;20.73;13.35;;;;;;;;;;4206139;34;20110;-58
2020/12/12 04:03:51;;;;;;;19.20;14.10;;;;;;;;;;4205908;34;20133;-59
2020/12/12 04:06:17;;;;;;;18.77;13.00;;;;;;;;;;4206105;34;20121;-58
2020/12/12 04:08:43;;;;;;;20.05;14.25;;;;;;;;;;4193114;34;20228;-58
2020/12/12 04:11:09;;;;;;;17.75;13.85;;;;;;;;;;4206152;34;20141;-58
2020/12/12 04:13:35;;;;;;;22.67;14.05;;;;;;;;;;4206166;34;20129;-62
2020/12/12 04:16:02;;;;;;;18.45;13.85;;;;;;;;;;4206217;34;20450;-57
2020/12/12 04:18:28;;;;;;;19.75;13.23;;;;;;;;;;4184835;34;20129;-61
2020/12/12 04:20:54;;;;;;;20.00;13.68;;;;;;;;;;4166160;34;20180;-60
2020/12/12 04:23:20;;;;;;;16.85;13.23;;;;;;;;;;4173499;34;20154;-60
2020/12/12 04:25:46;;;;;;;18.50;14.20;;;;;;;;;;4192374;34;20129;-55
2020/12/12 04:28:12;;;;;;;22.10;15.38;;;;;;;;;;4192025;34;20488;-58
2020/12/12 04:30:38;;;;;;;19.17;14.18;;;;;;;;;;4192081;34;20110;-56
2020/12/12 04:33:04;;;;;;;20.00;14.98;;;;;;;;;;4192159;34;20117;-57
2020/12/12 04:35:30;;;;;;;21.48;15.05;;;;;;;;;;4192270;34;20142;-56
2020/12/12 04:38:00;;;;;;;21.02;15.05;;;;;;;;;;4191321;34;20102;-55
2020/12/12 04:40:30;;;;;;;20.02;14.70;;;;;;;;;;4178534;34;20581;-53
2020/12/12 04:42:56;;;;;;;24.87;15.63;;;;;;;;;;4178441;34;20116;-56
2020/12/12 04:45:21;;;;;;;20.42;15.15;;;;;;;;;;4178682;34;20122;-54
2020/12/12 04:47:51;;;;;;;21.25;16.85;;;;;;;;;;4165176;34;20129;-53
2020/12/12 04:50:17;;;;;;;23.05;16.50;;;;;;;;;;4178325;34;20130;-56
2020/12/12 04:52:43;;;;;;;25.37;16.70;;;;;;;;;;4178159;34;20445;-52
2020/12/12 04:55:09;;;;;;;22.52;16.33;;;;;;;;;;4177240;34;20103;-51
2020/12/12 04:57:36;;;;;;;25.85;17.52;;;;;;;;;;4178211;34;20103;-52
2020/12/12 05:00:10;;;;;;;20.30;16.40;;;;;;;;;;4178069;34;20134;-53
2020/12/12 05:02:36;;;;;;;23.95;17.25;;;;;;;;;;4178110;34;20118;-52
2020/12/12 05:05:06;;;;;;;24.02;16.77;;;;;;;;;;4179105;34;20130;-59
2020/12/12 05:07:32;;;;;;;24.17;16.83;;;;;;;;;;4193029;34;20124;-60
2020/12/12 05:10:00;;;;;;;23.45;16.58;;;;;;;;;;4205644;34;20114;-59
2020/12/12 05:12:26;;;;;;;23.62;16.67;;;;;;;;;;4205645;34;20125;-60
2020/12/12 05:14:52;;;;;;;26.17;17.45;;;;;;;;;;4205458;34;20126;-59
2020/12/12 05:17:21;;;;;;;25.67;16.50;;;;;;;;;;4205799;34;20146;-60
2020/12/12 05:19:50;;;;;;;24.63;17.30;;;;;;;;;;4205406;34;20455;-58
2020/12/12 05:22:16;;;;;;;24.00;16.60;;;;;;;;;;4205700;34;20502;-57
2020/12/12 05:24:42;;;;;;;26.98;18.25;;;;;;;;;;4205412;34;20173;-56
2020/12/12 05:27:08;;;;;;;25.37;17.12;;;;;;;;;;4192771;34;20453;-55
2020/12/12 05:29:34;;;;;;;24.70;17.70;;;;;;;;;;4192763;34;20528;-55
2020/12/12 05:32:00;;;;;;;28.00;18.55;;;;;;;;;;4205580;34;20190;-56
2020/12/12 05:34:26;;;;;;;28.98;19.25;;;;;;;;;;4205382;34;20201;-57
2020/12/12 05:36:52;;;;;;;25.62;19.83;;;;;;;;;;4205687;34;20113;-58
2020/12/12 05:39:18;;;;;;;26.42;18.73;;;;;;;;;;4192623;34;20113;-57
2020/12/12 05:41:45;;;;;;;26.37;17.80;;;;;;;;;;4205361;34;20148;-57
2020/12/12 05:44:11;;;;;;;26.17;18.10;;;;;;;;;;4192298;34;20097;-56
2020/12/12 05:46:38;;;;;;;28.02;19.08;;;;;;;;;;4205375;34;20109;-57
2020/12/12 05:49:04;;;;;;;23.33;17.58;;;;;;;;;;4205300;34;20125;-57
2020/12/12 05:51:30;;;;;;;27.42;18.58;;;;;;;;;;4205264;34;20541;-57
2020/12/12 05:53:56;;;;;;;23.02;17.05;;;;;;;;;;4205127;34;20162;-58
2020/12/12 05:56:23;;;;;;;27.73;19.17;;;;;;;;;;4205214;34;20114;-60
2020/12/12 05:58:50;;;;;;;28.52;18.85;;;;;;;;;;4192368;34;20146;-60
2020/12/12 06:01:18;;;;;;;30.88;19.60;;;;;;;;;;4205276;34;20114;-60
2020/12/12 06:04:04;;;;;;;28.52;19.23;;;;;;;;;;4204974;34;20515;-59
2020/12/12 06:06:29;;;;;;;29.60;19.50;;;;;;;;;;4195906;34;20473;-58
2020/12/12 06:09:06;;;;;;;27.58;18.98;;;;;;;;;;4191187;34;20188;-58
2020/12/12 06:11:33;;;;;;;28.20;19.85;;;;;;;;;;4191356;34;20462;-57
2020/12/12 06:14:01;;;;;;;25.17;18.12;;;;;;;;;;4178848;34;20095;-57
2020/12/12 06:16:28;;;;;;;26.27;18.35;;;;;;;;;;4191296;34;20098;-58
2020/12/12 06:19:03;;;;;;;31.45;18.23;;;;;;;;;;4191132;34;20093;-57
2020/12/12 06:21:29;;;;;;;25.53;18.03;;;;;;;;;;4191223;34;20125;-57
2020/12/12 06:23:57;;;;;;;28.95;19.62;;;;;;;;;;4191389;34;20145;-58
2020/12/12 06:27:07;;;;;;;29.40;19.08;;;;;;;;;;4191233;34;20129;-58
2020/12/12 06:29:42;;;;;;;25.10;17.62;;;;;;;;;;4133278;34;20573;-58
2020/12/12 06:32:14;;;;;;;29.12;18.48;;;;;;;;;;4122023;34;20103;-58
2020/12/12 06:34:45;;;;;;;28.67;19.77;;;;;;;;;;4153597;34;20202;-58
2020/12/12 06:37:29;;;;;;;31.35;19.35;;;;;;;;;;4190559;34;20454;-57
2020/12/12 06:39:56;;;;;;;28.83;20.30;;;;;;;;;;4190183;34;20214;-58
2020/12/12 06:42:33;;;;;;;30.23;19.87;;;;;;;;;;4177443;34;20141;-58
2020/12/12 06:45:00;;;;;;;30.60;19.58;;;;;;;;;;4190711;34;20113;-58
2020/12/12 06:47:37;;;;;;;28.00;19.35;;;;;;;;;;4191123;34;20122;-57
2020/12/12 06:50:22;;;;;;;28.77;20.10;;;;;;;;;;4191000;34;20610;-57
2020/12/12 06:52:49;;;;;;;30.75;19.65;;;;;;;;;;4178801;34;20110;-58
2020/12/12 06:55:19;;;;;;;26.50;19.33;;;;;;;;;;4178091;34;20180;-58
2020/12/12 06:57:46;;;;;;;28.95;18.90;;;;;;;;;;4191133;34;20137;-57
2020/12/12 07:00:38;;;;;;;29.12;20.48;;;;;;;;;;4178083;34;20109;-58
2020/12/12 07:03:05;;;;;;;30.58;20.10;;;;;;;;;;4188405;34;20186;-57
2020/12/12 07:05:33;;;;;;;28.33;18.62;;;;;;;;;;4194053;34;20205;-58
2020/12/12 07:08:03;;;;;;;30.02;20.27;;;;;;;;;;4204709;34;20105;-58
2020/12/12 07:10:32;;;;;;;31.85;21.52;;;;;;;;;;4204516;34;20262;-58
2020/12/12 07:12:59;;;;;;;27.33;17.80;;;;;;;;;;4204675;34;20305;-59
2020/12/12 07:15:32;;;;;;;33.55;21.67;;;;;;;;;;4204778;34;20113;-58
2020/12/12 07:18:08;;;;;;;27.65;20.17;;;;;;;;;;4203905;34;20094;-58
2020/12/12 07:20:35;;;;;;;33.20;21.02;;;;;;;;;;4204636;34;20465;-58
2020/12/12 07:23:02;;;;;;;29.37;19.15;;;;;;;;;;4204560;34;20110;-57
2020/12/12 07:25:29;;;;;;;31.42;20.27;;;;;;;;;;4204491;34;20204;-57
2020/12/12 07:27:55;;;;;;;27.05;19.65;;;;;;;;;;4204542;34;20128;-58
2020/12/12 07:30:21;;;;;;;28.10;20.00;;;;;;;;;;4204443;34;20129;-58
2020/12/12 07:32:47;;;;;;;30.58;19.73;;;;;;;;;;4204685;34;20122;-58
2020/12/12 07:35:12;;;;;;;29.15;20.27;;;;;;;;;;4191446;34;20550;-58
2020/12/12 07:37:38;;;;;;;30.50;20.73;;;;;;;;;;4203802;34;20269;-58
2020/12/12 07:40:04;;;;;;;33.78;23.80;;;;;;;;;;4204139;34;20123;-59
2020/12/12 07:42:33;;;;;;;30.55;21.92;;;;;;;;;;4204287;34;20201;-59
2020/12/12 07:45:10;;;;;;;36.08;26.95;;;;;;;;;;4204121;34;20098;-59
2020/12/12 07:47:36;;;;;;;35.30;24.85;;;;;;;;;;4204288;34;20089;-58
2020/12/12 07:50:03;;;;;;;33.75;24.33;;;;;;;;;;4204447;34;20212;-59
2020/12/12 07:52:34;;;;;;;34.00;23.55;;;;;;;;;;4191329;34;20118;-62
2020/12/12 07:55:08;;;;;;;31.35;22.95;;;;;;;;;;4204073;34;20117;-57
2020/12/12 07:57:37;;;;;;;31.12;21.40;;;;;;;;;;4204126;34;20533;-57
2020/12/12 08:00:07;;;;;;;30.85;22.05;;;;;;;;;;4203311;34;20136;-57
2020/12/12 08:02:33;;;;;;;35.72;23.25;;;;;;;;;;4202492;34;20110;-57
2020/12/12 08:05:00;;;;;;;30.17;21.12;;;;;;;;;;4201510;34;20134;-57
2020/12/12 08:07:31;;;;;;;32.35;20.85;;;;;;;;;;4201785;34;20148;-57
2020/12/12 08:09:57;;;;;;;35.60;21.50;;;;;;;;;;4201931;34;20124;-57
2020/12/12 08:12:29;;;;;;;32.35;23.73;;;;;;;;;;4201998;34;20114;-59
2020/12/12 08:14:57;;;;;;;35.33;24.90;;;;;;;;;;4201837;34;20121;-57
2020/12/12 08:17:27;;;;;;;35.95;24.30;;;;;;;;;;4202051;34;20381;-57
2020/12/12 08:19:53;;;;;;;32.75;23.95;;;;;;;;;;4203516;34;20200;-57
2020/12/12 08:22:20;;;;;;;33.33;23.83;;;;;;;;;;4203930;34;20214;-57
2020/12/12 08:24:48;;;;;;;31.75;21.80;;;;;;;;;;4203712;34;20173;-57
2020/12/12 08:27:16;;;;;;;33.25;23.10;;;;;;;;;;4203936;34;20185;-57
2020/12/12 08:29:49;;;;;;;32.38;23.12;;;;;;;;;;4205602;34;20117;-58
2020/12/12 08:32:36;;;;;;;33.90;23.55;;;;;;;;;;4193265;34;20098;-58
2020/12/12 08:35:09;;;;;;;38.85;24.67;;;;;;;;;;4205983;34;20108;-58
2020/12/12 08:37:35;;;;;;;34.85;25.55;;;;;;;;;;4205958;34;20129;-59
2020/12/12 08:40:08;;;;;;;38.67;26.58;;;;;;;;;;4206005;34;20114;-57
2020/12/12 08:42:34;;;;;;;39.05;29.65;;;;;;;;;;4206093;34;20133;-57
2020/12/12 08:45:16;;;;;;;39.42;29.75;;;;;;;;;;4205706;34;20582;-57
2020/12/12 08:47:41;;;;;;;37.17;26.60;;;;;;;;;;4205898;34;20510;-57
2020/12/12 08:50:07;;;;;;;31.62;24.75;;;;;;;;;;4205960;34;20110;-57
2020/12/12 08:52:33;;;;;;;30.55;21.62;;;;;;;;;;4193007;34;20094;-57
2020/12/12 08:55:00;;;;;;;35.72;24.55;;;;;;;;;;4206035;34;20185;-57
2020/12/12 08:57:26;;;;;;;32.35;22.50;;;;;;;;;;4205778;34;20146;-58
2020/12/12 09:00:02;;;;;;;31.75;21.75;;;;;;;;;;4205521;34;20102;-58
2020/12/12 09:02:28;;;;;;;28.65;22.33;;;;;;;;;;4206124;34;20109;-57
2020/12/12 09:05:07;;;;;;;29.77;21.55;;;;;;;;;;4205446;34;20106;-58
2020/12/12 09:07:33;;;;;;;30.35;22.35;;;;;;;;;;4205650;34;20493;-57
2020/12/12 09:10:15;;;;;;;33.30;24.35;;;;;;;;;;4205543;34;20101;-58
2020/12/12 09:12:46;;;;;;;31.70;23.20;;;;;;;;;;4205901;34;20106;-59
2020/12/12 09:15:13;;;;;;;30.95;24.00;;;;;;;;;;4205520;34;20134;-58
2020/12/12 09:17:39;;;;;;;34.72;24.40;;;;;;;;;;4205833;34;20093;-58
2020/12/12 09:20:07;;;;;;;30.83;21.75;;;;;;;;;;4205858;34;20094;-58
2020/12/12 09:22:37;;;;;;;31.48;22.45;;;;;;;;;;4201346;34;20486;-57
2020/12/12 09:25:08;;;;;;;32.40;23.00;;;;;;;;;;4191320;34;20090;-58
2020/12/12 09:27:33;;;;;;;35.42;23.95;;;;;;;;;;4191599;34;20114;-57
2020/12/12 09:29:59;;;;;;;30.40;23.85;;;;;;;;;;4191652;34;20208;-57
2020/12/12 09:32:25;;;;;;;32.15;22.95;;;;;;;;;;4191850;34;20122;-58
2020/12/12 09:34:51;;;;;;;37.45;26.12;;;;;;;;;;4191580;34;20573;-58
2020/12/12 09:37:17;;;;;;;34.15;24.98;;;;;;;;;;4191694;34;20138;-58
2020/12/12 09:39:43;;;;;;;34.15;24.75;;;;;;;;;;4191117;34;20214;-58
2020/12/12 09:42:09;;;;;;;32.45;22.35;;;;;;;;;;4191558;34;20118;-58
2020/12/12 09:44:35;;;;;;;32.83;23.35;;;;;;;;;;4191735;34;20113;-57
2020/12/12 09:47:01;;;;;;;34.22;22.73;;;;;;;;;;4178958;34;20098;-57
2020/12/12 09:49:27;;;;;;;33.92;22.70;;;;;;;;;;4191694;34;20101;-57
2020/12/12 09:51:52;;;;;;;29.23;21.90;;;;;;;;;;4191497;34;20198;-57
2020/12/12 09:54:18;;;;;;;27.77;20.83;;;;;;;;;;4191430;34;20142;-57
2020/12/12 09:56:47;;;;;;;30.37;22.45;;;;;;;;;;4191489;34;20137;-57
2020/12/12 09:59:13;;;;;;;41.55;28.92;;;;;;;;;;4191145;34;20501;-58
2020/12/12 10:01:39;;;;;;;42.00;31.67;;;;;;;;;;4191434;34;20107;-57
2020/12/12 10:04:05;;;;;;;38.60;28.27;;;;;;;;;;4191317;34;20214;-58
2020/12/12 10:06:31;;;;;;;40.65;31.15;;;;;;;;;;4191228;34;20129;-58
2020/12/12 10:08:57;;;;;;;34.53;24.92;;;;;;;;;;4191265;34;20108;-58
2020/12/12 10:11:22;;;;;;;29.40;23.48;;;;;;;;;;4191383;34;20124;-58
2020/12/12 10:13:48;;;;;;;28.10;20.85;;;;;;;;;;4191304;34;20118;-58
2020/12/12 10:16:14;;;;;;;28.83;21.62;;;;;;;;;;4191373;34;20113;-58
2020/12/12 10:18:40;;;;;;;25.02;19.25;;;;;;;;;;4191164;34;20106;-58
2020/12/12 10:21:06;;;;;;;28.10;21.70;;;;;;;;;;4191387;34;20676;-58
2020/12/12 10:23:32;;;;;;;33.03;24.95;;;;;;;;;;4191220;34;20169;-58
2020/12/12 10:25:58;;;;;;;32.95;25.30;;;;;;;;;;4200689;34;20101;-58
2020/12/12 10:28:24;;;;;;;31.50;25.90;;;;;;;;;;4205110;34;20109;-57
2020/12/12 10:30:50;;;;;;;26.75;22.30;;;;;;;;;;4205238;34;20140;-58
2020/12/12 10:33:15;;;;;;;26.83;20.90;;;;;;;;;;4204941;34;20478;-57
2020/12/12 10:35:41;;;;;;;27.00;21.70;;;;;;;;;;4205026;34;20519;-57
2020/12/12 10:38:09;;;;;;;26.37;22.17;;;;;;;;;;4204905;34;20610;-57
2020/12/12 10:40:47;;;;;;;26.12;20.83;;;;;;;;;;4204849;34;20228;-57
2020/12/12 10:43:13;;;;;;;28.05;23.85;;;;;;;;;;4192172;34;20140;-57
2020/12/12 10:45:41;;;;;;;26.85;20.73;;;;;;;;;;4204831;34;20498;-57
2020/12/12 10:48:07;;;;;;;23.65;18.15;;;;;;;;;;4204931;34;20521;-57
2020/12/12 10:50:33;;;;;;;22.23;18.58;;;;;;;;;;4191904;34;20106;-58
2020/12/12 10:52:59;;;;;;;23.73;18.10;;;;;;;;;;4204056;34;20182;-57
2020/12/12 10:55:25;;;;;;;24.55;18.87;;;;;;;;;;4204877;34;20110;-57
2020/12/12 10:57:51;;;;;;;25.50;19.80;;;;;;;;;;4204913;34;20121;-58
2020/12/12 11:00:25;;;;;;;25.05;18.95;;;;;;;;;;4194342;34;20530;-58
2020/12/12 11:02:52;;;;;;;24.45;18.62;;;;;;;;;;4191206;34;20138;-59
2020/12/12 11:05:18;;;;;;;24.75;17.58;;;;;;;;;;4190601;34;20201;-58
2020/12/12 11:07:44;;;;;;;25.23;19.30;;;;;;;;;;4191148;34;20098;-58
2020/12/12 11:10:09;;;;;;;26.12;20.12;;;;;;;;;;4190813;34;20178;-58
2020/12/12 11:12:35;;;;;;;28.75;21.45;;;;;;;;;;4190931;34;20130;-58
2020/12/12 11:15:01;;;;;;;25.55;19.83;;;;;;;;;;4191006;34;20102;-57
2020/12/12 11:17:27;;;;;;;28.90;23.73;;;;;;;;;;4190806;34;20206;-57
2020/12/12 11:19:53;;;;;;;37.00;29.67;;;;;;;;;;4190737;34;20122;-58
2020/12/12 11:22:19;;;;;;;35.67;29.58;;;;;;;;;;4190792;34;20506;-57
2020/12/12 11:24:45;;;;;;;35.00;29.00;;;;;;;;;;4190555;34;20137;-58
2020/12/12 11:27:11;;;;;;;33.75;25.00;;;;;;;;;;4186377;34;20215;-57
2020/12/12 11:29:37;;;;;;;31.83;23.05;;;;;;;;;;4204294;34;20129;-57
2020/12/12 11:32:03;;;;;;;31.95;23.08;;;;;;;;;;4204739;34;20128;-57
2020/12/12 11:34:36;;;;;;;34.28;26.90;;;;;;;;;;4204246;34;20519;-58
2020/12/12 11:43:10;;;;;;;32.63;24.20;;;;;;;;;;4204370;34;20156;-58
2020/12/12 11:46:14;;;;;;;31.75;23.80;;;;;;;;;;4204019;34;20094;-57
2020/12/12 11:48:23;;;;;;;30.25;23.38;;;;;;;;;;4203078;34;20125;-58
2020/12/12 11:50:49;;;;;;;32.13;23.08;;;;;;;;;;4204087;34;20110;-59
2020/12/12 11:53:15;;;;;;;28.85;22.85;;;;;;;;;;4204191;34;20498;-59
2020/12/12 11:55:40;;;;;;;26.70;20.20;;;;;;;;;;4204243;34;20110;-58
2020/12/12 11:58:06;;;;;;;33.97;25.75;;;;;;;;;;4204072;34;20144;-60
2020/12/12 12:00:32;;;;;;;33.45;23.30;;;;;;;;;;4203989;34;20118;-58
2020/12/12 12:02:58;;;;;;;36.25;25.88;;;;;;;;;;4204411;34;20514;-57
2020/12/12 12:05:24;;;;;;;37.80;30.52;;;;;;;;;;4206229;34;20106;-58
2020/12/12 12:07:51;;;;;;;40.55;31.87;;;;;;;;;;4206181;34;20189;-58
2020/12/12 12:12:42;;;;;;;40.75;32.03;;;;;;;;;;4206212;34;20115;-58
2020/12/12 12:15:08;;;;;;;36.33;30.45;;;;;;;;;;4206193;34;20613;-58
2020/12/12 12:17:34;;;;;;;33.72;28.33;;;;;;;;;;4206039;34;20209;-58
2020/12/12 12:20:00;;;;;;;33.33;27.83;;;;;;;;;;4206078;34;20152;-59
2020/12/12 12:22:27;;;;;;;38.17;27.37;;;;;;;;;;4206151;34;20118;-58
2020/12/12 12:24:55;;;;;;;32.92;26.50;;;;;;;;;;4206028;34;20137;-58
2020/12/12 12:27:22;;;;;;;31.58;25.80;;;;;;;;;;4205976;34;20116;-57
2020/12/12 12:29:48;;;;;;;30.83;23.40;;;;;;;;;;4206040;34;20517;-57
2020/12/12 12:32:14;;;;;;;37.85;29.37;;;;;;;;;;4206327;34;20097;-58
2020/12/12 12:34:39;;;;;;;35.80;24.52;;;;;;;;;;4205946;34;20521;-58
2020/12/12 12:37:05;;;;;;;33.63;26.12;;;;;;;;;;4206021;34;20525;-57
2020/12/12 12:39:31;;;;;;;32.85;26.12;;;;;;;;;;4205704;34;20149;-58
2020/12/12 12:41:57;;;;;;;34.08;25.83;;;;;;;;;;4205955;34;20749;-56
2020/12/12 12:44:23;;;;;;;32.25;24.95;;;;;;;;;;4205924;34;20446;-57
2020/12/12 12:46:49;;;;;;;29.48;24.87;;;;;;;;;;4205919;34;20104;-57
2020/12/12 12:49:16;;;;;;;31.55;24.50;;;;;;;;;;4192946;34;20122;-57
2020/12/12 12:51:43;;;;;;;34.22;26.30;;;;;;;;;;4206110;34;20121;-58
2020/12/12 12:54:09;;;;;;;36.47;29.02;;;;;;;;;;4192935;34;20114;-57
2020/12/12 12:56:36;;;;;;;35.28;28.85;;;;;;;;;;4192938;34;20110;-57
2020/12/12 12:59:02;;;;;;;34.08;28.27;;;;;;;;;;4205571;34;20543;-57
2020/12/12 13:01:28;;;;;;;36.15;27.80;;;;;;;;;;4192622;34;20586;-57
2020/12/12 13:03:54;;;;;;;36.85;28.00;;;;;;;;;;4205628;34;20116;-57
2020/12/12 13:06:21;;;;;;;35.42;25.65;;;;;;;;;;4205664;34;20126;-57
2020/12/12 13:08:46;;;;;;;29.75;24.52;;;;;;;;;;4205523;34;20193;-59
2020/12/12 13:11:15;;;;;;;28.05;23.95;;;;;;;;;;4205817;34;20098;-57
2020/12/12 13:13:41;;;;;;;30.20;23.27;;;;;;;;;;4205536;34;20098;-58
2020/12/12 13:16:08;;;;;;;30.37;25.10;;;;;;;;;;4204956;34;20103;-57
2020/12/12 13:18:51;;;;;;;28.67;23.73;;;;;;;;;;4192845;34;20685;-58
2020/12/12 13:21:32;;;;;;;27.90;24.48;;;;;;;;;;4194511;34;20133;-59
2020/12/12 13:23:58;;;;;;;28.62;24.42;;;;;;;;;;4205635;34;21910;-58
2020/12/12 13:26:24;;;;;;;28.62;23.65;;;;;;;;;;4205547;34;20202;-58
2020/12/12 13:31:31;;;;;;;30.17;24.80;;;;;;;;;;4205584;34;20105;-57
2020/12/12 13:33:58;;;;;;;27.62;22.15;;;;;;;;;;4205399;34;20132;-58
2020/12/12 13:36:24;;;;;;;25.62;21.80;;;;;;;;;;4205612;34;20086;-59
2020/12/12 13:38:50;;;;;;;27.25;23.70;;;;;;;;;;4205485;34;20139;-56
2020/12/12 13:41:20;;;;;;;28.75;23.92;;;;;;;;;;4205502;34;20149;-57
2020/12/12 13:43:46;;;;;;;27.77;24.27;;;;;;;;;;4205267;34;20559;-58
2020/12/12 13:46:12;;;;;;;28.02;25.10;;;;;;;;;;4205679;34;20192;-57
2020/12/12 13:48:38;;;;;;;25.35;21.55;;;;;;;;;;4205254;34;20098;-58
2020/12/12 13:51:04;;;;;;;23.15;20.37;;;;;;;;;;4205392;34;20114;-58
2020/12/12 13:53:29;;;;;;;22.23;18.20;;;;;;;;;;4205284;34;20101;-58
2020/12/12 13:55:55;;;;;;;21.17;18.40;;;;;;;;;;4205112;34;20121;-58
2020/12/12 13:58:21;;;;;;;18.85;16.83;;;;;;;;;;4205057;34;20463;-59
2020/12/12 14:00:47;;;;;;;21.95;18.98;;;;;;;;;;4205192;34;20225;-59
2020/12/12 14:03:13;;;;;;;19.17;16.35;;;;;;;;;;4205155;34;20113;-58
2020/12/12 14:05:45;;;;;;;23.50;20.58;;;;;;;;;;4204905;34;20109;-59
2020/12/12 14:08:15;;;;;;;25.37;21.85;;;;;;;;;;4205174;34;20185;-59
2020/12/12 14:24:13;;;;;;;22.52;20.23;;;;;;;;;;4191319;34;20110;-58
2020/12/12 14:29:23;;;;;;;26.20;21.65;;;;;;;;;;4190911;34;20478;-59
2020/12/12 14:31:49;;;;;;;23.27;20.00;;;;;;;;;;4191406;34;20120;-59
2020/12/12 14:34:15;;;;;;;24.00;21.40;;;;;;;;;;4190957;34;20198;-59
2020/12/12 14:36:44;;;;;;;25.90;21.75;;;;;;;;;;4191331;34;20483;-59
2020/12/12 14:39:10;;;;;;;30.08;23.52;;;;;;;;;;4190942;34;20090;-59
2020/12/12 14:41:38;;;;;;;35.38;27.80;;;;;;;;;;4178322;34;20284;-58
2020/12/12 14:44:04;;;;;;;27.52;24.48;;;;;;;;;;4190858;34;20204;-59
2020/12/12 14:46:30;;;;;;;32.65;24.87;;;;;;;;;;4191202;34;20208;-59
2020/12/12 14:48:56;;;;;;;23.58;19.52;;;;;;;;;;4190927;34;20306;-61
2020/12/12 14:51:22;;;;;;;24.63;19.12;;;;;;;;;;4191207;34;20108;-59